Time;durP1;ratioP1;P1;durP2;ratioP2;P2;SDS_P1;SDS_P2;PMS_P1;PMS_P2;Temp;Humidity;BMP_temperature;BMP_pressure;BME280_temperature;BME280_humidity;BME280_pressure;Samples;Min_cycle;Max_cycle;Signal;HPM_P1;HPM_P2
2023/09/16 00:01:52;;;;;;;22.67;9.18;;;;;;;;;;5035251;28;20064;-68
2023/09/16 00:04:17;;;;;;;14.95;8.52;;;;;;;;;;5034690;28;21656;-68
2023/09/16 00:06:42;;;;;;;12.73;7.60;;;;;;;;;;5034892;28;20021;-68
2023/09/16 00:09:07;;;;;;;16.30;7.37;;;;;;;;;;5034598;28;20048;-68
2023/09/16 00:11:33;;;;;;;18.10;8.80;;;;;;;;;;5034786;28;20021;-68
2023/09/16 00:13:58;;;;;;;13.73;7.13;;;;;;;;;;5034460;28;20048;-68
2023/09/16 00:16:23;;;;;;;16.87;8.50;;;;;;;;;;5034500;28;20492;-68
2023/09/16 00:18:48;;;;;;;17.60;9.63;;;;;;;;;;5034589;28;20259;-68
2023/09/16 00:21:14;;;;;;;16.83;8.73;;;;;;;;;;5034316;28;20298;-68
2023/09/16 00:23:39;;;;;;;20.05;9.32;;;;;;;;;;5034454;28;20032;-68
2023/09/16 00:26:04;;;;;;;16.53;9.00;;;;;;;;;;5034579;28;20462;-68
2023/09/16 00:28:30;;;;;;;16.65;9.10;;;;;;;;;;5034313;28;20253;-68
2023/09/16 00:30:57;;;;;;;19.45;9.23;;;;;;;;;;5034440;28;20061;-68
2023/09/16 00:33:22;;;;;;;20.33;8.95;;;;;;;;;;5034333;28;20030;-68
2023/09/16 00:35:47;;;;;;;11.47;7.03;;;;;;;;;;5034284;28;20473;-68
2023/09/16 00:38:15;;;;;;;16.13;8.60;;;;;;;;;;5034062;28;20028;-68
2023/09/16 00:40:40;;;;;;;18.98;8.20;;;;;;;;;;5034383;28;20021;-68
2023/09/16 00:43:06;;;;;;;18.73;8.97;;;;;;;;;;5034305;28;20421;-67
2023/09/16 00:45:33;;;;;;;17.13;7.63;;;;;;;;;;5033806;28;20270;-67
2023/09/16 00:47:58;;;;;;;15.57;8.30;;;;;;;;;;5034264;28;20496;-67
2023/09/16 00:50:23;;;;;;;14.23;8.60;;;;;;;;;;5033906;28;20022;-67
2023/09/16 00:52:51;;;;;;;15.15;7.22;;;;;;;;;;5033766;28;20033;-67
2023/09/16 00:55:16;;;;;;;15.23;7.50;;;;;;;;;;5033979;28;20461;-67
2023/09/16 00:57:44;;;;;;;14.30;7.03;;;;;;;;;;5034113;28;20028;-67
2023/09/16 01:00:10;;;;;;;18.08;8.15;;;;;;;;;;5033427;28;20432;-67
2023/09/16 01:02:36;;;;;;;16.10;7.45;;;;;;;;;;5033798;28;20021;-67
2023/09/16 01:05:04;;;;;;;13.18;7.60;;;;;;;;;;5034017;28;20025;-67
2023/09/16 01:07:30;;;;;;;16.30;8.00;;;;;;;;;;5033633;28;20359;-67
2023/09/16 01:09:55;;;;;;;13.50;7.50;;;;;;;;;;5033712;28;20032;-67
2023/09/16 01:12:20;;;;;;;12.93;7.97;;;;;;;;;;5033351;28;20113;-67
2023/09/16 01:14:46;;;;;;;11.98;7.18;;;;;;;;;;5033519;28;20108;-67
2023/09/16 01:17:40;;;;;;;12.23;7.47;;;;;;;;;;5033447;28;20017;-66
2023/09/16 01:20:08;;;;;;;14.88;7.57;;;;;;;;;;5015052;28;20396;-67
2023/09/16 01:22:33;;;;;;;14.10;7.25;;;;;;;;;;5033501;28;20021;-67
2023/09/16 01:25:03;;;;;;;16.25;7.32;;;;;;;;;;5033406;28;20100;-67
2023/09/16 01:27:29;;;;;;;13.82;6.68;;;;;;;;;;5033606;28;20033;-67
2023/09/16 01:29:54;;;;;;;21.30;7.57;;;;;;;;;;5032986;28;20025;-67
2023/09/16 01:32:21;;;;;;;21.95;7.28;;;;;;;;;;5033170;28;20336;-67
2023/09/16 01:34:52;;;;;;;12.50;7.07;;;;;;;;;;5033003;28;20032;-67
2023/09/16 01:37:18;;;;;;;14.38;7.93;;;;;;;;;;5033169;28;20030;-67
2023/09/16 01:40:10;;;;;;;13.07;7.53;;;;;;;;;;5033352;28;20017;-67
2023/09/16 01:42:35;;;;;;;14.98;7.57;;;;;;;;;;5033438;28;20075;-67
2023/09/16 01:45:01;;;;;;;14.73;7.22;;;;;;;;;;5033006;28;20029;-67
2023/09/16 01:47:27;;;;;;;16.27;8.55;;;;;;;;;;5033114;28;20461;-67
2023/09/16 01:49:53;;;;;;;16.13;7.57;;;;;;;;;;5032676;28;20064;-67
2023/09/16 01:52:18;;;;;;;13.63;6.87;;;;;;;;;;5033126;28;20029;-68
2023/09/16 01:54:43;;;;;;;17.77;7.73;;;;;;;;;;5032991;28;20029;-68
2023/09/16 01:57:08;;;;;;;13.30;6.80;;;;;;;;;;5032707;28;20392;-68
2023/09/16 01:59:33;;;;;;;15.07;8.00;;;;;;;;;;5032825;28;20013;-68
2023/09/16 02:01:59;;;;;;;19.05;7.63;;;;;;;;;;5032965;28;20599;-68
2023/09/16 02:04:24;;;;;;;12.67;6.33;;;;;;;;;;5032863;28;20109;-68
2023/09/16 02:06:50;;;;;;;23.13;8.33;;;;;;;;;;5032786;28;20746;-68
2023/09/16 02:09:16;;;;;;;20.42;6.75;;;;;;;;;;5032578;28;20025;-68
2023/09/16 02:11:41;;;;;;;12.32;6.85;;;;;;;;;;5037708;28;20025;-68
2023/09/16 02:14:09;;;;;;;10.07;5.95;;;;;;;;;;5039538;28;20021;-68
2023/09/16 02:16:34;;;;;;;19.67;7.28;;;;;;;;;;5039074;28;20018;-68
2023/09/16 02:18:59;;;;;;;12.80;7.27;;;;;;;;;;5021621;28;20477;-68
2023/09/16 02:21:25;;;;;;;14.67;6.93;;;;;;;;;;5039421;28;20028;-68
2023/09/16 02:23:50;;;;;;;11.40;6.40;;;;;;;;;;5038838;28;20277;-68
2023/09/16 02:26:15;;;;;;;11.87;6.60;;;;;;;;;;5039305;28;20021;-68
2023/09/16 02:28:40;;;;;;;12.70;7.25;;;;;;;;;;5039161;28;20032;-68
2023/09/16 02:31:09;;;;;;;11.45;5.20;;;;;;;;;;5039197;28;20547;-68
2023/09/16 02:33:35;;;;;;;12.50;6.57;;;;;;;;;;5039211;28;20080;-68
2023/09/16 02:36:00;;;;;;;13.05;6.22;;;;;;;;;;5038973;28;20425;-68
2023/09/16 02:38:25;;;;;;;12.67;5.73;;;;;;;;;;5039200;28;20032;-68
2023/09/16 02:40:50;;;;;;;12.23;6.10;;;;;;;;;;5039163;28;20021;-68
2023/09/16 02:43:15;;;;;;;11.03;6.70;;;;;;;;;;5039100;28;20053;-68
2023/09/16 02:45:41;;;;;;;10.97;6.67;;;;;;;;;;5039358;28;20040;-68
2023/09/16 02:48:06;;;;;;;14.00;6.57;;;;;;;;;;5039169;28;20611;-68
2023/09/16 02:50:36;;;;;;;16.00;7.20;;;;;;;;;;5039333;28;20481;-68
2023/09/16 02:53:01;;;;;;;12.30;7.07;;;;;;;;;;5038725;28;20104;-68
2023/09/16 02:55:27;;;;;;;17.70;7.80;;;;;;;;;;5038865;28;20465;-68
2023/09/16 02:57:53;;;;;;;14.02;6.78;;;;;;;;;;5039236;28;20316;-68
2023/09/16 03:00:18;;;;;;;12.30;7.18;;;;;;;;;;5038811;28;20035;-68
2023/09/16 03:02:47;;;;;;;12.23;6.80;;;;;;;;;;5039088;28;20022;-68
2023/09/16 03:05:12;;;;;;;13.10;5.97;;;;;;;;;;5038491;28;20116;-68
2023/09/16 03:07:37;;;;;;;12.30;6.43;;;;;;;;;;5038896;28;20104;-68
2023/09/16 03:10:02;;;;;;;10.83;6.17;;;;;;;;;;5038744;28;20108;-68
2023/09/16 03:12:27;;;;;;;12.48;6.50;;;;;;;;;;5038685;28;20048;-68
2023/09/16 03:14:53;;;;;;;13.03;6.03;;;;;;;;;;5038710;28;20032;-68
2023/09/16 03:17:18;;;;;;;7.88;4.88;;;;;;;;;;5038468;28;20017;-68
2023/09/16 03:19:43;;;;;;;15.43;5.70;;;;;;;;;;5039023;28;20147;-68
2023/09/16 03:22:08;;;;;;;13.10;6.97;;;;;;;;;;5036531;28;20322;-68
2023/09/16 03:24:34;;;;;;;12.70;6.03;;;;;;;;;;5035427;28;20267;-68
2023/09/16 03:26:59;;;;;;;10.23;6.20;;;;;;;;;;5035617;28;20348;-68
2023/09/16 03:29:24;;;;;;;7.93;5.03;;;;;;;;;;5035572;28;20017;-68
2023/09/16 03:31:49;;;;;;;10.38;5.55;;;;;;;;;;5035234;28;20046;-68
2023/09/16 03:34:15;;;;;;;10.97;5.70;;;;;;;;;;5035549;28;20466;-68
2023/09/16 03:36:40;;;;;;;19.90;7.37;;;;;;;;;;5035612;28;20026;-68
2023/09/16 03:39:05;;;;;;;22.60;7.20;;;;;;;;;;5035872;28;20033;-68
2023/09/16 03:41:30;;;;;;;11.53;6.03;;;;;;;;;;5035074;28;20017;-68
2023/09/16 03:43:55;;;;;;;10.57;5.60;;;;;;;;;;5035212;28;20269;-67
2023/09/16 03:46:21;;;;;;;11.97;5.73;;;;;;;;;;5027078;28;20468;-68
2023/09/16 03:48:46;;;;;;;18.40;5.80;;;;;;;;;;5035548;28;20267;-68
2023/09/16 03:51:12;;;;;;;9.60;5.50;;;;;;;;;;5034932;28;20738;-68
2023/09/16 03:53:37;;;;;;;14.38;7.22;;;;;;;;;;5035093;28;20281;-68
2023/09/16 03:56:05;;;;;;;13.10;6.68;;;;;;;;;;5035040;28;20437;-68
2023/09/16 03:58:30;;;;;;;16.55;7.10;;;;;;;;;;5034869;28;20025;-68
2023/09/16 04:00:55;;;;;;;12.10;6.40;;;;;;;;;;5035092;28;20018;-68
2023/09/16 04:03:21;;;;;;;7.77;4.80;;;;;;;;;;5035091;28;20021;-68
2023/09/16 04:05:46;;;;;;;11.17;6.10;;;;;;;;;;5034649;28;20258;-68
2023/09/16 04:08:11;;;;;;;15.53;7.23;;;;;;;;;;5034875;28;20301;-68
2023/09/16 04:10:37;;;;;;;12.33;5.70;;;;;;;;;;5034946;28;20025;-68
2023/09/16 04:13:02;;;;;;;14.43;6.80;;;;;;;;;;5035116;28;20021;-67
2023/09/16 04:15:27;;;;;;;10.75;5.63;;;;;;;;;;5034597;28;20029;-67
2023/09/16 04:17:52;;;;;;;14.40;6.10;;;;;;;;;;5034285;28;20033;-67
2023/09/16 04:20:19;;;;;;;12.60;7.23;;;;;;;;;;5034608;28;20068;-67
2023/09/16 04:22:44;;;;;;;13.18;6.25;;;;;;;;;;5034781;28;20742;-67
2023/09/16 04:25:09;;;;;;;10.13;5.88;;;;;;;;;;5034335;28;20056;-67
2023/09/16 04:27:35;;;;;;;15.03;6.37;;;;;;;;;;5034373;28;20105;-67
2023/09/16 04:30:00;;;;;;;12.60;7.07;;;;;;;;;;5016421;28;20267;-67
2023/09/16 04:32:25;;;;;;;11.70;6.67;;;;;;;;;;5034330;28;20328;-67
2023/09/16 04:34:50;;;;;;;11.10;6.23;;;;;;;;;;5034971;28;20025;-67
2023/09/16 04:37:16;;;;;;;10.53;5.23;;;;;;;;;;5046643;28;20258;-67
2023/09/16 04:39:42;;;;;;;10.73;6.43;;;;;;;;;;5037877;28;20025;-67
2023/09/16 04:42:08;;;;;;;10.18;5.90;;;;;;;;;;5038544;28;20017;-67
2023/09/16 04:44:38;;;;;;;10.27;6.05;;;;;;;;;;5044047;28;20033;-72
2023/09/16 04:47:07;;;;;;;12.32;6.78;;;;;;;;;;5039074;28;20461;-72
2023/09/16 04:49:32;;;;;;;10.52;6.43;;;;;;;;;;5048990;28;20361;-71
2023/09/16 04:51:57;;;;;;;11.93;5.70;;;;;;;;;;5037320;28;20079;-72
2023/09/16 04:54:23;;;;;;;11.60;6.37;;;;;;;;;;5037022;28;20075;-72
2023/09/16 04:56:48;;;;;;;11.93;6.47;;;;;;;;;;5033701;28;20037;-72
2023/09/16 04:59:13;;;;;;;11.00;6.03;;;;;;;;;;5035657;28;20267;-72
2023/09/16 05:01:38;;;;;;;12.90;6.50;;;;;;;;;;5038060;28;20274;-72
2023/09/16 05:04:03;;;;;;;10.17;5.60;;;;;;;;;;5036418;28;20021;-72
2023/09/16 05:06:28;;;;;;;10.10;5.93;;;;;;;;;;5035902;28;20491;-72
2023/09/16 05:08:54;;;;;;;13.47;6.57;;;;;;;;;;5037957;28;20857;-72
2023/09/16 05:11:19;;;;;;;11.85;6.88;;;;;;;;;;5039126;28;20018;-72
2023/09/16 05:13:50;;;;;;;13.32;7.32;;;;;;;;;;5037309;28;20017;-72
2023/09/16 05:16:15;;;;;;;10.25;5.78;;;;;;;;;;5036104;28;20112;-72
2023/09/16 05:18:40;;;;;;;9.90;5.90;;;;;;;;;;5031720;28;20471;-72
2023/09/16 05:21:05;;;;;;;12.43;6.03;;;;;;;;;;5032185;28;20025;-72
2023/09/16 05:23:33;;;;;;;11.63;6.03;;;;;;;;;;5031435;28;20401;-72
2023/09/16 05:25:58;;;;;;;10.35;5.75;;;;;;;;;;5040522;28;20021;-72
2023/09/16 05:28:24;;;;;;;10.07;5.73;;;;;;;;;;5028313;28;20059;-72
2023/09/16 05:30:49;;;;;;;10.83;6.27;;;;;;;;;;5036882;28;20041;-72
2023/09/16 05:33:14;;;;;;;11.30;6.70;;;;;;;;;;5039713;28;20037;-72
2023/09/16 05:35:40;;;;;;;11.25;6.13;;;;;;;;;;5033503;28;20354;-72
2023/09/16 05:38:06;;;;;;;9.88;6.20;;;;;;;;;;5033870;28;20063;-72
2023/09/16 05:40:31;;;;;;;11.85;5.25;;;;;;;;;;5033995;28;20515;-71
2023/09/16 05:42:56;;;;;;;9.35;5.72;;;;;;;;;;5034001;28;20018;-72
2023/09/16 05:45:21;;;;;;;12.98;5.70;;;;;;;;;;5033215;28;20018;-72
2023/09/16 05:47:48;;;;;;;15.67;6.30;;;;;;;;;;5032689;28;20032;-72
2023/09/16 05:50:13;;;;;;;9.73;5.60;;;;;;;;;;5035244;28;20442;-72
2023/09/16 05:52:38;;;;;;;9.20;5.93;;;;;;;;;;5033842;28;20034;-72
2023/09/16 05:55:04;;;;;;;11.27;6.30;;;;;;;;;;5032855;28;20025;-72
2023/09/16 05:57:30;;;;;;;12.30;6.55;;;;;;;;;;5033767;28;20512;-72
2023/09/16 05:59:55;;;;;;;13.00;7.60;;;;;;;;;;5037485;28;20485;-66
2023/09/16 06:02:20;;;;;;;15.30;6.40;;;;;;;;;;5035260;28;20013;-66
2023/09/16 06:04:45;;;;;;;11.40;6.27;;;;;;;;;;5032917;28;20032;-67
2023/09/16 06:07:11;;;;;;;11.27;6.10;;;;;;;;;;5034177;28;20033;-75
2023/09/16 06:09:36;;;;;;;11.73;6.20;;;;;;;;;;5029033;28;20084;-74
2023/09/16 06:12:01;;;;;;;14.03;6.33;;;;;;;;;;5028494;28;20434;-73
2023/09/16 06:14:26;;;;;;;11.60;6.20;;;;;;;;;;5019622;28;20788;-73
2023/09/16 06:16:52;;;;;;;18.17;8.10;;;;;;;;;;5014730;28;20750;-73
2023/09/16 06:19:17;;;;;;;19.80;8.02;;;;;;;;;;5038209;28;20081;-73
2023/09/16 06:21:42;;;;;;;14.80;8.33;;;;;;;;;;5035643;28;20017;-73
2023/09/16 06:24:07;;;;;;;18.33;8.65;;;;;;;;;;5037054;28;20022;-74
2023/09/16 06:26:33;;;;;;;18.57;8.53;;;;;;;;;;5036766;28;20025;-75
2023/09/16 06:28:58;;;;;;;15.55;7.75;;;;;;;;;;5043954;28;20679;-74
2023/09/16 06:31:23;;;;;;;14.67;8.07;;;;;;;;;;5032975;28;20034;-73
2023/09/16 06:33:49;;;;;;;18.40;9.07;;;;;;;;;;5033038;28;20029;-74
2023/09/16 06:36:15;;;;;;;21.90;9.00;;;;;;;;;;5035235;28;20472;-74
2023/09/16 06:38:40;;;;;;;16.37;8.10;;;;;;;;;;5039893;28;20022;-74
2023/09/16 06:41:05;;;;;;;24.93;8.50;;;;;;;;;;5034796;28;20270;-74
2023/09/16 06:43:30;;;;;;;15.00;7.13;;;;;;;;;;5039090;28;20021;-72
2023/09/16 06:45:55;;;;;;;15.52;8.13;;;;;;;;;;5033147;28;20023;-72
2023/09/16 06:48:21;;;;;;;16.77;7.43;;;;;;;;;;5032932;28;20101;-72
2023/09/16 06:50:46;;;;;;;11.00;7.10;;;;;;;;;;5032559;28;20024;-72
2023/09/16 06:53:11;;;;;;;15.07;8.10;;;;;;;;;;5035252;28;20262;-72
2023/09/16 06:55:37;;;;;;;13.73;7.10;;;;;;;;;;5033922;28;20533;-72
2023/09/16 06:58:04;;;;;;;12.07;7.38;;;;;;;;;;5034554;28;20013;-73
2023/09/16 07:00:29;;;;;;;10.25;6.25;;;;;;;;;;5037866;28;20017;-73
2023/09/16 07:02:57;;;;;;;15.05;7.00;;;;;;;;;;5036420;28;20013;-74
2023/09/16 07:05:22;;;;;;;14.10;8.05;;;;;;;;;;5036461;28;20048;-74
2023/09/16 07:07:47;;;;;;;11.93;7.27;;;;;;;;;;5035748;28;20454;-74
2023/09/16 07:10:12;;;;;;;17.70;7.53;;;;;;;;;;5039010;28;20021;-74
2023/09/16 07:12:38;;;;;;;17.00;8.13;;;;;;;;;;5035791;28;20040;-74
2023/09/16 07:15:03;;;;;;;15.73;7.75;;;;;;;;;;5036122;28;20029;-74
2023/09/16 07:17:29;;;;;;;12.32;7.68;;;;;;;;;;5037110;28;20037;-74
2023/09/16 07:19:54;;;;;;;12.55;7.68;;;;;;;;;;5036025;28;20021;-74
2023/09/16 07:22:20;;;;;;;18.20;7.57;;;;;;;;;;5035532;28;20032;-73
2023/09/16 07:24:45;;;;;;;10.65;7.05;;;;;;;;;;5031879;28;20300;-74
2023/09/16 07:27:11;;;;;;;12.30;7.77;;;;;;;;;;5042166;28;20020;-75
2023/09/16 07:29:37;;;;;;;14.18;5.85;;;;;;;;;;5037843;28;20053;-73
2023/09/16 07:32:02;;;;;;;10.77;6.57;;;;;;;;;;5034245;28;20505;-77
2023/09/16 07:34:27;;;;;;;11.70;6.07;;;;;;;;;;5034911;28;20560;-77
2023/09/16 07:36:53;;;;;;;20.83;7.47;;;;;;;;;;5016966;28;20263;-78
2023/09/16 07:39:18;;;;;;;9.32;6.10;;;;;;;;;;5034437;28;20250;-76
2023/09/16 07:41:43;;;;;;;10.20;6.50;;;;;;;;;;5034963;28;20049;-71
2023/09/16 07:44:08;;;;;;;12.97;6.93;;;;;;;;;;5034800;28;20047;-71
2023/09/16 07:46:34;;;;;;;11.83;6.57;;;;;;;;;;5034704;28;20258;-71
2023/09/16 07:48:59;;;;;;;9.70;6.38;;;;;;;;;;5034842;28;20028;-71
2023/09/16 07:51:25;;;;;;;11.95;7.07;;;;;;;;;;5033347;28;20025;-72
2023/09/16 07:53:50;;;;;;;13.57;6.80;;;;;;;;;;5033296;28;20053;-71
2023/09/16 07:56:18;;;;;;;11.33;7.23;;;;;;;;;;5034254;28;20021;-71
2023/09/16 07:58:43;;;;;;;11.63;6.70;;;;;;;;;;5034700;28;20133;-71
2023/09/16 08:01:08;;;;;;;11.30;6.30;;;;;;;;;;5034672;28;20290;-71
2023/09/16 08:03:37;;;;;;;9.60;6.67;;;;;;;;;;5034519;28;20266;-71
2023/09/16 08:06:02;;;;;;;12.38;7.30;;;;;;;;;;5034309;28;20551;-71
2023/09/16 08:08:27;;;;;;;14.27;7.00;;;;;;;;;;5033114;28;20060;-71
2023/09/16 08:10:52;;;;;;;11.23;6.53;;;;;;;;;;5034419;28;20765;-71
2023/09/16 08:13:18;;;;;;;8.90;6.63;;;;;;;;;;5034193;28;20033;-71
2023/09/16 08:15:43;;;;;;;9.57;6.03;;;;;;;;;;5034246;28;20099;-71
2023/09/16 08:18:08;;;;;;;10.80;6.53;;;;;;;;;;5034397;28;20479;-71
2023/09/16 08:20:34;;;;;;;9.77;6.90;;;;;;;;;;5033953;28;20024;-71
2023/09/16 08:22:59;;;;;;;8.98;6.13;;;;;;;;;;5016099;28;20262;-72
2023/09/16 08:25:24;;;;;;;10.80;7.27;;;;;;;;;;5033424;28;20014;-71
2023/09/16 08:27:50;;;;;;;11.48;7.15;;;;;;;;;;5033914;28;20551;-71
2023/09/16 08:30:15;;;;;;;8.03;5.97;;;;;;;;;;5034102;28;20056;-71
2023/09/16 08:32:40;;;;;;;8.33;5.73;;;;;;;;;;5033566;28;20132;-71
2023/09/16 08:35:06;;;;;;;7.93;5.80;;;;;;;;;;5033816;28;20029;-71
2023/09/16 08:37:32;;;;;;;8.82;5.78;;;;;;;;;;5033759;28;20465;-71
2023/09/16 08:39:57;;;;;;;10.65;6.07;;;;;;;;;;5033121;28;20031;-71
2023/09/16 08:42:28;;;;;;;12.73;6.30;;;;;;;;;;5033798;28;20021;-71
2023/09/16 08:44:54;;;;;;;10.07;6.72;;;;;;;;;;5033574;28;20466;-72
2023/09/16 08:47:29;;;;;;;8.90;6.72;;;;;;;;;;5033649;28;20026;-71
2023/09/16 08:49:59;;;;;;;9.00;5.78;;;;;;;;;;5034018;28;20032;-71
2023/09/16 08:52:26;;;;;;;8.68;6.03;;;;;;;;;;5033558;28;20136;-77
2023/09/16 08:54:52;;;;;;;10.57;5.85;;;;;;;;;;5032863;28;20550;-78
2023/09/16 08:57:17;;;;;;;12.02;6.63;;;;;;;;;;5033091;28;20021;-77
2023/09/16 08:59:43;;;;;;;7.43;5.10;;;;;;;;;;5033793;28;20020;-78
2023/09/16 09:02:08;;;;;;;10.85;4.78;;;;;;;;;;5033479;28;20017;-78
2023/09/16 09:04:34;;;;;;;7.20;5.20;;;;;;;;;;5033130;28;20071;-77
2023/09/16 09:07:00;;;;;;;8.93;4.90;;;;;;;;;;5033351;28;20029;-78
2023/09/16 09:09:25;;;;;;;8.00;4.80;;;;;;;;;;5032628;28;20032;-78
2023/09/16 09:11:51;;;;;;;8.20;4.77;;;;;;;;;;5024830;28;20025;-78
2023/09/16 09:14:18;;;;;;;7.78;4.18;;;;;;;;;;5033295;28;20021;-75
2023/09/16 09:16:44;;;;;;;9.32;5.20;;;;;;;;;;5033242;28;20029;-75
2023/09/16 09:19:10;;;;;;;7.38;5.53;;;;;;;;;;5033602;28;20088;-75
2023/09/16 09:21:36;;;;;;;7.53;5.32;;;;;;;;;;5031854;28;20384;-75
2023/09/16 09:24:01;;;;;;;7.70;4.55;;;;;;;;;;5032841;28;20027;-75
2023/09/16 09:26:27;;;;;;;7.27;4.77;;;;;;;;;;5032547;28;20131;-75
2023/09/16 09:28:52;;;;;;;6.70;4.65;;;;;;;;;;5032996;28;20262;-75
2023/09/16 09:31:18;;;;;;;8.30;4.60;;;;;;;;;;5032805;28;20559;-74
2023/09/16 09:33:44;;;;;;;7.80;5.03;;;;;;;;;;5032879;28;20432;-75
2023/09/16 09:36:11;;;;;;;11.60;4.53;;;;;;;;;;5032777;28;20021;-76
2023/09/16 09:38:43;;;;;;;8.65;4.88;;;;;;;;;;5031966;28;20381;-75
2023/09/16 09:41:09;;;;;;;7.22;4.15;;;;;;;;;;5032878;28;20039;-75
2023/09/16 09:43:34;;;;;;;8.02;4.40;;;;;;;;;;5032362;28;20063;-75
2023/09/16 09:45:59;;;;;;;13.17;4.77;;;;;;;;;;5032673;28;20366;-75
2023/09/16 09:48:25;;;;;;;8.23;4.13;;;;;;;;;;5032531;28;20389;-75
2023/09/16 09:50:50;;;;;;;5.10;3.90;;;;;;;;;;5032538;28;20259;-76
2023/09/16 09:53:15;;;;;;;6.80;4.57;;;;;;;;;;5031974;28;20108;-75
2023/09/16 09:55:41;;;;;;;9.63;4.63;;;;;;;;;;5032288;28;20278;-76
2023/09/16 09:58:06;;;;;;;7.77;4.40;;;;;;;;;;5032315;28;20018;-75
2023/09/16 10:00:31;;;;;;;14.73;4.90;;;;;;;;;;5032236;28;20258;-76
2023/09/16 10:03:00;;;;;;;5.00;4.40;;;;;;;;;;5032691;28;20301;-71
2023/09/16 10:05:25;;;;;;;5.68;4.45;;;;;;;;;;5032106;28;20488;-71
2023/09/16 10:07:51;;;;;;;14.83;4.80;;;;;;;;;;5031901;28;20102;-71
2023/09/16 10:10:19;;;;;;;6.63;4.50;;;;;;;;;;5032183;28;20075;-70
2023/09/16 10:12:45;;;;;;;19.77;5.35;;;;;;;;;;5032031;28;20028;-71
2023/09/16 10:15:11;;;;;;;10.77;4.75;;;;;;;;;;5032380;28;20372;-71
2023/09/16 10:17:37;;;;;;;9.98;4.75;;;;;;;;;;5032365;28;20022;-71
2023/09/16 10:20:02;;;;;;;6.40;4.10;;;;;;;;;;5031996;28;20480;-71
2023/09/16 10:22:29;;;;;;;7.50;4.63;;;;;;;;;;5031940;28;20061;-71
2023/09/16 10:24:54;;;;;;;7.07;4.65;;;;;;;;;;5031817;28;20014;-71
2023/09/16 10:27:22;;;;;;;7.23;5.03;;;;;;;;;;5032299;28;20032;-71
2023/09/16 10:29:50;;;;;;;6.30;4.30;;;;;;;;;;5032110;28;20040;-71
2023/09/16 10:32:16;;;;;;;8.48;4.45;;;;;;;;;;5033496;28;20116;-71
2023/09/16 10:34:43;;;;;;;6.15;4.30;;;;;;;;;;5036062;28;20112;-71
2023/09/16 10:37:08;;;;;;;11.02;4.88;;;;;;;;;;5035668;28;20073;-71
2023/09/16 10:39:34;;;;;;;5.03;4.22;;;;;;;;;;5035986;28;20024;-71
2023/09/16 10:42:01;;;;;;;9.77;4.35;;;;;;;;;;5036118;28;20485;-71
2023/09/16 10:44:28;;;;;;;6.32;4.93;;;;;;;;;;5035668;28;20032;-71
2023/09/16 10:46:54;;;;;;;7.70;4.88;;;;;;;;;;5036077;28;20095;-71
2023/09/16 10:49:19;;;;;;;9.18;4.38;;;;;;;;;;5035887;28;20021;-71
2023/09/16 10:51:45;;;;;;;8.50;4.45;;;;;;;;;;5035206;28;20029;-71
2023/09/16 10:54:17;;;;;;;6.50;4.38;;;;;;;;;;5035659;28;20029;-71
2023/09/16 10:56:43;;;;;;;5.72;4.40;;;;;;;;;;5035554;28;20029;-71
2023/09/16 10:59:10;;;;;;;8.98;4.95;;;;;;;;;;5035846;28;20096;-71
2023/09/16 11:02:05;;;;;;;9.68;4.25;;;;;;;;;;5035668;28;20388;-71
2023/09/16 11:04:31;;;;;;;6.85;4.32;;;;;;;;;;5022304;28;20049;-71
2023/09/16 11:06:58;;;;;;;8.23;4.60;;;;;;;;;;5035061;28;20034;-71
2023/09/16 11:09:24;;;;;;;6.63;3.95;;;;;;;;;;5035113;28;20104;-71
2023/09/16 11:11:50;;;;;;;6.25;3.88;;;;;;;;;;5035790;28;20108;-71
2023/09/16 11:14:15;;;;;;;4.93;4.05;;;;;;;;;;5035959;28;20024;-71
2023/09/16 11:16:50;;;;;;;6.50;4.43;;;;;;;;;;5036034;28;20031;-71
2023/09/16 11:19:18;;;;;;;13.05;4.03;;;;;;;;;;5034873;28;20021;-71
2023/09/16 11:21:44;;;;;;;5.97;3.78;;;;;;;;;;5034671;28;20033;-71
2023/09/16 11:24:10;;;;;;;7.13;3.83;;;;;;;;;;5034175;28;20017;-71
2023/09/16 11:26:39;;;;;;;8.50;4.18;;;;;;;;;;5026729;28;20018;-71
2023/09/16 11:29:23;;;;;;;6.20;4.15;;;;;;;;;;5035151;28;20025;-71
2023/09/16 11:31:48;;;;;;;6.35;4.30;;;;;;;;;;5034923;28;20049;-71
2023/09/16 11:34:17;;;;;;;6.95;3.72;;;;;;;;;;5034862;28;20028;-71
2023/09/16 11:36:45;;;;;;;6.43;3.97;;;;;;;;;;5034162;28;20028;-71
2023/09/16 11:39:10;;;;;;;7.10;3.53;;;;;;;;;;5035008;28;20389;-71
2023/09/16 11:41:36;;;;;;;7.20;4.27;;;;;;;;;;5034780;28;20017;-71
2023/09/16 11:44:02;;;;;;;5.13;3.22;;;;;;;;;;5033805;28;20471;-71
2023/09/16 11:46:27;;;;;;;5.32;3.80;;;;;;;;;;5034677;28;20028;-71
2023/09/16 11:48:56;;;;;;;6.38;3.90;;;;;;;;;;5035128;28;20025;-71
2023/09/16 11:51:22;;;;;;;6.78;4.00;;;;;;;;;;5034483;28;20025;-71
2023/09/16 11:53:48;;;;;;;5.20;3.85;;;;;;;;;;5034535;28;20064;-71
2023/09/16 11:56:13;;;;;;;6.53;3.75;;;;;;;;;;5034635;28;20473;-71
2023/09/16 11:58:42;;;;;;;6.50;3.83;;;;;;;;;;5034757;28;20465;-71
2023/09/16 12:01:10;;;;;;;5.47;3.72;;;;;;;;;;5034641;28;20018;-71
2023/09/16 12:03:35;;;;;;;7.63;4.13;;;;;;;;;;5034526;28;20505;-71
2023/09/16 12:06:00;;;;;;;7.47;4.20;;;;;;;;;;5034071;28;20029;-71
2023/09/16 12:08:25;;;;;;;5.03;4.10;;;;;;;;;;5034327;28;20285;-71
2023/09/16 12:10:52;;;;;;;5.50;3.97;;;;;;;;;;5034399;28;20267;-71
2023/09/16 12:13:30;;;;;;;7.30;4.28;;;;;;;;;;5034101;28;20761;-71
2023/09/16 12:15:55;;;;;;;5.57;4.22;;;;;;;;;;5034321;28;20144;-71
2023/09/16 12:18:21;;;;;;;10.15;4.65;;;;;;;;;;5034285;28;20101;-71
2023/09/16 12:20:47;;;;;;;8.38;3.80;;;;;;;;;;5033863;28;20104;-71
2023/09/16 12:23:12;;;;;;;8.35;4.15;;;;;;;;;;5034352;28;20009;-71
2023/09/16 12:25:38;;;;;;;5.85;4.18;;;;;;;;;;5032642;28;20033;-71
2023/09/16 12:28:04;;;;;;;6.20;4.10;;;;;;;;;;5027213;28;20112;-71
2023/09/16 12:30:29;;;;;;;6.97;4.60;;;;;;;;;;5033654;28;20022;-70
2023/09/16 12:32:54;;;;;;;7.40;4.27;;;;;;;;;;5033817;28;20108;-70
2023/09/16 12:35:19;;;;;;;7.23;4.40;;;;;;;;;;5033865;28;20076;-71
2023/09/16 12:37:45;;;;;;;10.35;4.40;;;;;;;;;;5033510;28;20462;-72
2023/09/16 12:40:10;;;;;;;7.47;4.70;;;;;;;;;;5033747;28;20037;-72
2023/09/16 12:42:36;;;;;;;6.78;4.28;;;;;;;;;;5028664;28;20022;-72
2023/09/16 12:45:02;;;;;;;6.45;4.55;;;;;;;;;;5032657;28;20024;-72
2023/09/16 12:47:27;;;;;;;6.47;4.18;;;;;;;;;;5027084;28;20037;-72
2023/09/16 12:49:53;;;;;;;5.55;3.95;;;;;;;;;;5033588;28;20476;-72
2023/09/16 12:52:18;;;;;;;7.30;4.30;;;;;;;;;;5032646;28;20021;-71
2023/09/16 12:54:46;;;;;;;6.77;4.13;;;;;;;;;;5032957;28;20033;-72
2023/09/16 12:57:12;;;;;;;8.20;4.65;;;;;;;;;;5033239;28;20787;-72
2023/09/16 12:59:37;;;;;;;7.93;4.63;;;;;;;;;;5033316;28;20028;-72
2023/09/16 13:02:03;;;;;;;6.33;4.10;;;;;;;;;;5033578;28;20374;-72
2023/09/16 13:04:28;;;;;;;9.13;4.30;;;;;;;;;;5033498;28;20258;-72
2023/09/16 13:06:55;;;;;;;7.07;4.10;;;;;;;;;;5032601;28;20111;-71
2023/09/16 13:09:20;;;;;;;7.15;4.28;;;;;;;;;;5033531;28;20262;-72
2023/09/16 13:11:49;;;;;;;7.77;4.43;;;;;;;;;;5033675;28;20016;-71
2023/09/16 13:14:14;;;;;;;8.43;4.18;;;;;;;;;;5033863;28;20726;-71
2023/09/16 13:16:40;;;;;;;6.30;4.57;;;;;;;;;;5033315;28;20096;-71
2023/09/16 13:19:14;;;;;;;6.53;3.95;;;;;;;;;;5032681;28;20259;-71
2023/09/16 13:21:40;;;;;;;7.80;4.35;;;;;;;;;;5032527;28;20117;-71
2023/09/16 13:24:05;;;;;;;7.27;4.43;;;;;;;;;;5033129;28;20083;-71
2023/09/16 13:26:31;;;;;;;5.23;4.20;;;;;;;;;;5032818;28;20254;-71
2023/09/16 13:28:57;;;;;;;6.40;4.45;;;;;;;;;;5033243;28;20022;-71
2023/09/16 13:31:24;;;;;;;10.75;4.60;;;;;;;;;;5032452;28;20405;-71
2023/09/16 13:33:53;;;;;;;9.30;5.30;;;;;;;;;;5033069;28;20474;-76
2023/09/16 13:36:19;;;;;;;10.35;4.45;;;;;;;;;;5031945;28;20028;-75
2023/09/16 13:38:46;;;;;;;8.95;4.68;;;;;;;;;;5032823;28;20025;-75
2023/09/16 13:41:11;;;;;;;9.68;4.57;;;;;;;;;;5032856;28;20016;-75
2023/09/16 13:43:37;;;;;;;6.87;4.30;;;;;;;;;;5032291;28;20029;-75
2023/09/16 13:46:03;;;;;;;6.72;4.53;;;;;;;;;;5032719;28;20029;-75
2023/09/16 13:48:30;;;;;;;8.07;4.57;;;;;;;;;;5032527;28;20079;-75
2023/09/16 13:50:55;;;;;;;7.80;4.43;;;;;;;;;;5032056;28;20779;-75
2023/09/16 13:53:21;;;;;;;6.70;4.10;;;;;;;;;;5032373;28;20029;-75
2023/09/16 13:55:47;;;;;;;8.80;4.00;;;;;;;;;;5032578;28;20104;-75
2023/09/16 13:58:13;;;;;;;7.28;4.38;;;;;;;;;;5032276;28;20478;-75
2023/09/16 14:00:38;;;;;;;11.43;4.93;;;;;;;;;;5032541;28;20024;-75
2023/09/16 14:03:04;;;;;;;8.98;4.55;;;;;;;;;;5032557;28;20750;-75
2023/09/16 14:05:29;;;;;;;9.98;4.85;;;;;;;;;;5032091;28;20037;-75
2023/09/16 14:07:55;;;;;;;6.18;4.50;;;;;;;;;;5031337;28;20148;-75
2023/09/16 14:10:23;;;;;;;8.45;4.70;;;;;;;;;;5032466;28;20029;-75
2023/09/16 14:12:48;;;;;;;12.48;4.68;;;;;;;;;;5032275;28;20025;-75
2023/09/16 14:15:14;;;;;;;6.10;4.40;;;;;;;;;;5032398;28;20018;-75
2023/09/16 14:17:39;;;;;;;8.27;4.63;;;;;;;;;;5032222;28;20267;-75
2023/09/16 14:20:04;;;;;;;8.03;4.33;;;;;;;;;;5032257;28;20294;-75
2023/09/16 14:22:30;;;;;;;7.70;4.78;;;;;;;;;;5031489;28;20097;-75
2023/09/16 14:24:55;;;;;;;7.00;4.83;;;;;;;;;;5032817;28;20107;-75
2023/09/16 14:27:21;;;;;;;7.13;4.63;;;;;;;;;;5031841;28;20304;-75
2023/09/16 14:29:46;;;;;;;8.50;4.30;;;;;;;;;;5032141;28;20068;-75